Time;durP1;ratioP1;P1;durP2;ratioP2;P2;SDS_P1;SDS_P2;PMS_P1;PMS_P2;Temp;Humidity;BMP_temperature;BMP_pressure;BME280_temperature;BME280_humidity;BME280_pressure;Samples;Min_cycle;Max_cycle;Signal;HPM_P1;HPM_P2
2023/03/05 00:00:42;;;;;;;16.90;15.48;;;0.30;99.90;;;;;;4190248;28;20413;-83
2023/03/05 00:03:02;;;;;;;16.38;15.18;;;0.30;99.90;;;;;;4192718;28;20056;-84
2023/03/05 00:05:22;;;;;;;15.65;14.63;;;0.40;99.90;;;;;;4206864;28;20183;-83
2023/03/05 00:07:43;;;;;;;14.07;13.05;;;0.50;99.90;;;;;;4207492;28;20043;-83
2023/03/05 00:10:04;;;;;;;11.77;10.77;;;0.30;99.90;;;;;;4191177;28;20048;-84
2023/03/05 00:12:25;;;;;;;14.15;13.10;;;0.30;99.90;;;;;;4190060;28;20287;-83
2023/03/05 00:14:45;;;;;;;9.88;9.35;;;0.30;99.90;;;;;;4204234;28;20047;-83
2023/03/05 00:17:07;;;;;;;10.68;10.38;;;0.40;99.90;;;;;;4190227;28;20059;-83
2023/03/05 00:19:26;;;;;;;11.27;10.68;;;0.30;99.90;;;;;;4180150;28;20052;-83
2023/03/05 00:21:48;;;;;;;16.05;14.88;;;0.40;99.90;;;;;;4180118;28;20056;-83
2023/03/05 00:24:16;;;;;;;18.77;16.65;;;0.30;99.90;;;;;;4188532;28;20083;-83
2023/03/05 00:26:37;;;;;;;26.70;22.45;;;0.20;99.90;;;;;;4190183;28;20064;-83
2023/03/05 00:28:59;;;;;;;21.95;19.30;;;0.00;99.90;;;;;;4191677;28;20382;-83
2023/03/05 00:31:24;;;;;;;26.52;21.60;;;-0.20;99.90;;;;;;4190442;28;20105;-83
2023/03/05 00:33:45;;;;;;;24.25;21.65;;;-0.30;99.90;;;;;;4188402;28;20063;-83
2023/03/05 00:36:06;;;;;;;22.73;20.58;;;-0.30;99.90;;;;;;4181670;28;20071;-83
2023/03/05 00:38:26;;;;;;;20.15;18.23;;;-0.20;99.90;;;;;;4190847;28;20355;-84
2023/03/05 00:40:49;;;;;;;24.83;21.60;;;-0.20;99.90;;;;;;4187346;28;20394;-83
2023/03/05 00:43:10;;;;;;;28.42;25.40;;;-0.20;99.90;;;;;;4207081;28;20059;-83
2023/03/05 00:45:30;;;;;;;24.42;20.88;;;-0.40;99.90;;;;;;4207170;28;20052;-83
2023/03/05 00:47:50;;;;;;;22.95;19.75;;;-0.60;99.90;;;;;;4190922;28;20275;-83
2023/03/05 00:50:10;;;;;;;22.77;20.48;;;-0.80;99.90;;;;;;4184487;28;20318;-83
2023/03/05 00:52:29;;;;;;;28.38;24.48;;;-0.90;99.90;;;;;;4201720;28;20403;-83
2023/03/05 00:54:50;;;;;;;20.17;18.52;;;-0.90;99.90;;;;;;4205043;28;20104;-83
2023/03/05 00:57:09;;;;;;;17.52;16.38;;;-0.90;99.90;;;;;;4207184;28;20086;-83
2023/03/05 00:59:29;;;;;;;18.17;16.95;;;-0.90;99.90;;;;;;4192020;28;20402;-83
2023/03/05 01:01:49;;;;;;;17.33;15.93;;;-0.90;99.90;;;;;;4190561;28;20442;-83
2023/03/05 01:04:10;;;;;;;19.73;18.20;;;-0.90;99.90;;;;;;4191075;28;20087;-84
2023/03/05 01:06:30;;;;;;;18.90;17.58;;;-0.80;99.90;;;;;;4177923;28;20394;-83
2023/03/05 01:08:50;;;;;;;16.30;15.35;;;-0.70;99.90;;;;;;4206184;28;20088;-84
2023/03/05 01:11:12;;;;;;;17.90;16.52;;;-0.60;99.90;;;;;;4179812;28;20324;-83
2023/03/05 01:13:32;;;;;;;22.35;19.65;;;-0.60;99.90;;;;;;4183386;28;20055;-84
2023/03/05 01:15:53;;;;;;;18.48;16.55;;;-0.50;99.90;;;;;;4191731;28;20056;-83
2023/03/05 01:18:13;;;;;;;21.02;19.52;;;-0.70;99.90;;;;;;4190842;28;20410;-83
2023/03/05 01:20:34;;;;;;;19.65;17.75;;;-0.70;99.90;;;;;;4200532;28;20067;-83
2023/03/05 01:22:54;;;;;;;17.75;16.38;;;-0.70;99.90;;;;;;4190825;28;20244;-83
2023/03/05 01:25:15;;;;;;;16.95;15.50;;;-0.60;99.90;;;;;;4191707;28;20064;-83
2023/03/05 01:27:38;;;;;;;16.10;15.00;;;-0.60;99.90;;;;;;4189403;28;20055;-83
2023/03/05 01:29:58;;;;;;;16.20;15.00;;;-0.60;99.90;;;;;;4191723;28;20348;-83
2023/03/05 01:32:19;;;;;;;14.65;13.73;;;-0.60;99.90;;;;;;4206770;28;20063;-83
2023/03/05 01:34:40;;;;;;;16.80;15.65;;;-0.60;99.90;;;;;;4191972;28;20068;-84
2023/03/05 01:37:00;;;;;;;14.52;13.48;;;-0.60;99.90;;;;;;4189651;28;20079;-83
2023/03/05 01:39:20;;;;;;;15.07;14.10;;;-0.60;99.90;;;;;;4206612;28;20102;-83
2023/03/05 01:41:40;;;;;;;15.13;14.35;;;-0.80;99.90;;;;;;4187681;28;20236;-83
2023/03/05 01:44:00;;;;;;;15.13;13.90;;;-0.90;99.90;;;;;;4185694;28;20120;-83
2023/03/05 01:46:26;;;;;;;14.77;13.77;;;-0.60;99.90;;;;;;4204139;28;20051;-83
2023/03/05 01:49:12;;;;;;;15.10;13.90;;;-0.50;99.90;;;;;;4189880;28;20099;-83
2023/03/05 01:51:55;;;;;;;;;;;;;;;;;;;;;
2023/03/05 01:54:30;;;;;;;21.33;19.63;;;-0.50;99.90;;;;;;4205155;28;20121;-83
2023/03/05 01:56:52;;;;;;;22.13;20.13;;;-0.90;99.90;;;;;;4190478;28;20056;-84
2023/03/05 01:59:13;;;;;;;19.40;18.02;;;-1.20;99.90;;;;;;4182020;28;20082;-84
2023/03/05 02:01:42;;;;;;;23.05;20.90;;;-1.40;99.90;;;;;;4191248;28;20058;-83
2023/03/05 02:04:02;;;;;;;21.33;19.48;;;-1.50;99.90;;;;;;4205984;28;20144;-84
2023/03/05 02:06:22;;;;;;;19.10;17.40;;;-1.60;99.90;;;;;;4190603;28;20112;-83
2023/03/05 02:08:42;;;;;;;22.80;21.15;;;-1.60;99.90;;;;;;4203821;28;20039;-84
2023/03/05 02:11:03;;;;;;;21.20;18.67;;;-1.50;99.90;;;;;;4203185;28;20083;-83
2023/03/05 02:13:26;;;;;;;21.95;19.90;;;-1.50;99.90;;;;;;4186927;28;20059;-83
2023/03/05 02:15:48;;;;;;;22.85;19.42;;;-1.30;99.90;;;;;;4187880;28;20100;-83
2023/03/05 02:18:09;;;;;;;21.90;19.77;;;-1.30;99.90;;;;;;4190660;28;20070;-83
2023/03/05 02:20:42;;;;;;;21.08;19.42;;;-1.20;99.90;;;;;;4204207;28;20054;-83
2023/03/05 02:23:01;;;;;;;25.10;20.98;;;-1.20;99.90;;;;;;4204772;28;20066;-84
2023/03/05 02:25:26;;;;;;;19.88;18.27;;;-1.30;99.90;;;;;;4191161;28;20079;-83
2023/03/05 02:28:06;;;;;;;21.10;19.25;;;-1.40;99.90;;;;;;4198729;28;20083;-83
2023/03/05 02:30:26;;;;;;;21.55;19.85;;;-1.60;99.90;;;;;;4203328;28;20058;-84
2023/03/05 02:32:47;;;;;;;22.15;20.50;;;-1.30;99.90;;;;;;4190902;28;20105;-83
2023/03/05 02:35:11;;;;;;;18.58;17.17;;;-1.30;99.90;;;;;;4205296;28;20059;-83
2023/03/05 02:37:31;;;;;;;19.80;18.20;;;-1.20;99.90;;;;;;4193241;28;20108;-84
2023/03/05 02:39:50;;;;;;;23.05;21.08;;;-1.20;99.90;;;;;;4187956;28;20101;-83
2023/03/05 02:42:14;;;;;;;21.33;19.23;;;-1.20;99.90;;;;;;4180961;28;20075;-83
2023/03/05 02:44:34;;;;;;;18.75;17.55;;;-1.20;99.90;;;;;;4205286;28;20355;-83
2023/03/05 02:46:55;;;;;;;19.27;17.67;;;-1.20;99.90;;;;;;4205673;28;20056;-83
2023/03/05 02:49:14;;;;;;;18.13;16.85;;;-1.30;99.90;;;;;;4203707;28;20047;-83
2023/03/05 02:51:35;;;;;;;17.00;15.55;;;-1.30;99.90;;;;;;4205575;28;20055;-83
2023/03/05 02:53:56;;;;;;;21.77;19.90;;;-1.30;99.90;;;;;;4189778;28;20121;-83
2023/03/05 02:56:15;;;;;;;19.40;18.05;;;-1.40;99.90;;;;;;4190651;28;20148;-83
2023/03/05 02:58:35;;;;;;;20.60;18.52;;;-1.40;99.90;;;;;;4205679;28;20051;-83
2023/03/05 03:00:55;;;;;;;18.92;17.60;;;-1.30;99.90;;;;;;4190106;28;20066;-83
2023/03/05 03:03:15;;;;;;;22.35;20.20;;;-1.20;99.90;;;;;;4205707;28;20079;-83
2023/03/05 03:05:36;;;;;;;24.30;22.27;;;-1.30;99.90;;;;;;4189394;28;20232;-83
2023/03/05 03:07:55;;;;;;;24.30;22.17;;;-1.50;99.90;;;;;;4206498;28;20278;-83
2023/03/05 03:10:16;;;;;;;26.08;23.60;;;-1.60;99.90;;;;;;4192635;28;20052;-83
2023/03/05 03:12:43;;;;;;;23.13;20.83;;;-1.60;99.90;;;;;;4191277;28;20083;-84
2023/03/05 03:15:03;;;;;;;23.58;21.13;;;-1.80;99.90;;;;;;4191525;28;20051;-83
2023/03/05 03:17:23;;;;;;;23.83;21.38;;;-1.70;99.90;;;;;;4191453;28;20055;-83
2023/03/05 03:19:43;;;;;;;19.42;17.83;;;-1.90;99.90;;;;;;4208415;28;20074;-84
2023/03/05 03:22:07;;;;;;;22.17;19.88;;;-1.90;99.90;;;;;;4206338;28;20075;-83
2023/03/05 03:24:28;;;;;;;20.50;18.90;;;-1.90;99.90;;;;;;4185048;28;20379;-83
2023/03/05 03:26:48;;;;;;;19.60;18.27;;;-2.00;99.90;;;;;;4189516;28;20048;-83
2023/03/05 03:29:08;;;;;;;20.13;18.08;;;-2.00;99.90;;;;;;4207545;28;20066;-83
2023/03/05 03:31:28;;;;;;;21.98;20.02;;;-2.10;99.90;;;;;;4192379;28;20289;-84
2023/03/05 03:33:48;;;;;;;21.05;19.42;;;-2.20;99.90;;;;;;4207585;28;20516;-83
2023/03/05 03:36:08;;;;;;;22.58;20.90;;;-2.10;99.90;;;;;;4192357;28;20095;-83
2023/03/05 03:38:28;;;;;;;19.95;18.45;;;-1.80;99.90;;;;;;4206759;28;20075;-83
2023/03/05 03:40:48;;;;;;;21.48;19.75;;;-1.70;99.90;;;;;;4205455;28;20086;-83
2023/03/05 03:43:08;;;;;;;23.20;21.30;;;-1.60;99.90;;;;;;4207116;28;20055;-83
2023/03/05 03:45:28;;;;;;;23.33;21.05;;;-1.60;99.90;;;;;;4183233;28;20051;-84
2023/03/05 03:47:50;;;;;;;23.25;21.00;;;-1.70;99.90;;;;;;4191344;28;20083;-83
2023/03/05 03:50:11;;;;;;;21.52;19.83;;;-1.90;99.90;;;;;;4207472;28;20066;-83
2023/03/05 03:52:30;;;;;;;23.35;21.25;;;-1.80;99.90;;;;;;4204968;28;20048;-83
2023/03/05 03:54:51;;;;;;;20.15;18.75;;;-1.70;99.90;;;;;;4190881;28;20169;-83
2023/03/05 03:57:12;;;;;;;19.35;17.67;;;-1.70;99.90;;;;;;4207481;28;20055;-83
2023/03/05 03:59:31;;;;;;;18.40;17.30;;;-1.70;99.90;;;;;;4191155;28;20327;-83
2023/03/05 04:01:52;;;;;;;20.15;18.55;;;-1.70;99.90;;;;;;4192283;28;20370;-84
2023/03/05 04:04:12;;;;;;;21.40;19.55;;;-2.00;99.90;;;;;;4190170;28;20082;-83
2023/03/05 04:06:33;;;;;;;23.30;21.33;;;-2.10;99.90;;;;;;4206277;28;20097;-84
2023/03/05 04:08:53;;;;;;;24.65;22.73;;;-2.30;99.90;;;;;;4192060;28;20048;-83
2023/03/05 04:11:14;;;;;;;25.25;22.98;;;-2.30;99.90;;;;;;4204459;28;20216;-84
2023/03/05 04:13:34;;;;;;;22.15;20.60;;;-2.40;99.90;;;;;;4206532;28;20130;-83
2023/03/05 04:15:54;;;;;;;18.58;17.38;;;-2.50;99.90;;;;;;4207023;28;20106;-84
2023/03/05 04:18:14;;;;;;;19.10;17.63;;;-2.40;99.90;;;;;;4189374;28;20135;-83
2023/03/05 04:20:34;;;;;;;22.02;20.60;;;-2.30;99.90;;;;;;4206873;28;20145;-83
2023/03/05 04:22:54;;;;;;;19.55;18.15;;;-2.30;99.90;;;;;;4205846;28;20109;-83
2023/03/05 04:25:14;;;;;;;22.73;20.60;;;-2.30;99.90;;;;;;4192168;28;20348;-83
2023/03/05 04:27:36;;;;;;;20.63;19.05;;;-2.30;99.90;;;;;;4185021;28;20119;-83
2023/03/05 04:29:55;;;;;;;23.50;21.67;;;-2.40;99.90;;;;;;4191355;28;20051;-83
2023/03/05 04:32:21;;;;;;;24.85;22.50;;;-2.50;99.90;;;;;;4207106;28;20051;-83
2023/03/05 04:34:41;;;;;;;21.17;19.52;;;-2.50;99.90;;;;;;4189576;28;20048;-83
2023/03/05 04:37:01;;;;;;;21.92;20.20;;;-2.50;99.90;;;;;;4207149;28;20044;-83
2023/03/05 04:39:21;;;;;;;21.95;20.25;;;-2.50;99.90;;;;;;4185823;28;20076;-83
2023/03/05 04:41:41;;;;;;;22.00;20.33;;;-2.50;99.90;;;;;;4205468;28;20086;-83
2023/03/05 04:44:00;;;;;;;22.08;20.33;;;-2.20;99.90;;;;;;4206293;28;20243;-83
2023/03/05 04:46:20;;;;;;;22.80;21.17;;;-2.20;99.90;;;;;;4207074;28;20248;-83
2023/03/05 04:48:40;;;;;;;20.55;18.95;;;-2.10;99.90;;;;;;4205634;28;20055;-84
2023/03/05 04:51:01;;;;;;;23.10;21.23;;;-2.10;99.90;;;;;;4206539;28;20047;-83
2023/03/05 04:53:21;;;;;;;24.27;21.90;;;-2.20;99.90;;;;;;4191798;28;20052;-84
2023/03/05 04:55:42;;;;;;;25.15;22.80;;;-2.30;99.90;;;;;;4191556;28;20067;-84
2023/03/05 04:58:02;;;;;;;22.60;20.88;;;-2.40;99.90;;;;;;4205421;28;20051;-84
2023/03/05 05:00:25;;;;;;;24.63;22.08;;;-2.40;99.90;;;;;;4192041;28;20112;-83
2023/03/05 05:02:48;;;;;;;24.23;22.23;;;-2.50;99.90;;;;;;4191647;28;20048;-83
2023/03/05 05:05:10;;;;;;;19.45;18.02;;;-2.70;99.90;;;;;;4191539;28;20090;-83
2023/03/05 05:07:31;;;;;;;39.95;37.60;;;-2.80;99.90;;;;;;4190837;28;20124;-83
2023/03/05 05:09:51;;;;;;;46.03;43.47;;;-3.00;99.90;;;;;;4189744;28;20052;-83
2023/03/05 05:12:11;;;;;;;41.72;38.97;;;-3.00;99.90;;;;;;4184191;28;20120;-83
2023/03/05 05:14:33;;;;;;;25.02;23.48;;;-3.00;99.90;;;;;;4206797;28;20389;-83
2023/03/05 05:16:53;;;;;;;22.27;20.35;;;-2.80;99.90;;;;;;4191989;28;20083;-83
2023/03/05 05:19:13;;;;;;;23.55;21.63;;;-2.80;99.90;;;;;;4188998;28;20064;-83
2023/03/05 05:21:36;;;;;;;21.10;19.38;;;-2.80;99.90;;;;;;4184762;28;20131;-83
2023/03/05 05:23:56;;;;;;;21.35;19.67;;;-2.80;99.90;;;;;;4188005;28;20048;-83
2023/03/05 05:26:18;;;;;;;21.70;19.90;;;-2.60;99.90;;;;;;4205603;28;20086;-83
2023/03/05 05:28:40;;;;;;;23.90;20.85;;;-2.50;99.90;;;;;;4184261;28;20301;-83
2023/03/05 05:31:07;;;;;;;23.63;21.63;;;-2.50;99.90;;;;;;4206781;28;20052;-83
2023/03/05 05:33:27;;;;;;;22.02;20.25;;;-2.50;99.90;;;;;;4190223;28;20124;-83
2023/03/05 05:35:47;;;;;;;23.83;21.70;;;-2.70;99.90;;;;;;4191321;28;20051;-83
2023/03/05 05:38:07;;;;;;;25.98;23.58;;;-2.80;99.90;;;;;;4206516;28;20052;-83
2023/03/05 05:40:27;;;;;;;23.92;21.77;;;-3.00;99.90;;;;;;4179026;28;20079;-83
2023/03/05 05:42:49;;;;;;;20.48;19.17;;;-2.90;99.90;;;;;;4188653;28;20086;-83
2023/03/05 05:45:09;;;;;;;21.83;20.30;;;-2.80;99.90;;;;;;4188192;28;20043;-83
2023/03/05 05:47:30;;;;;;;20.95;19.40;;;-2.60;99.90;;;;;;4206514;28;20160;-83
2023/03/05 05:49:50;;;;;;;19.92;18.17;;;-2.70;99.90;;;;;;4204951;28;20106;-83
2023/03/05 05:52:10;;;;;;;19.60;18.35;;;-2.70;99.90;;;;;;4204405;28;20238;-83
2023/03/05 05:54:30;;;;;;;18.00;16.92;;;-2.60;99.90;;;;;;4191291;28;20040;-83
2023/03/05 05:56:51;;;;;;;18.52;17.10;;;-2.50;99.90;;;;;;4188980;28;20075;-84
2023/03/05 05:59:10;;;;;;;17.08;16.08;;;-2.60;99.90;;;;;;4206378;28;20068;-82
2023/03/05 06:01:32;;;;;;;20.30;19.00;;;-2.70;99.90;;;;;;4206404;28;20068;-83
2023/03/05 06:03:53;;;;;;;17.40;16.50;;;-2.50;99.90;;;;;;4191147;28;20375;-83
2023/03/05 06:06:17;;;;;;;18.10;16.70;;;-2.40;99.90;;;;;;4178778;28;20095;-83
2023/03/05 06:08:37;;;;;;;18.27;17.33;;;-2.40;99.90;;;;;;4191098;28;20063;-83
2023/03/05 06:10:56;;;;;;;17.60;16.15;;;-2.40;99.90;;;;;;4191079;28;20379;-83
2023/03/05 06:13:16;;;;;;;21.33;19.50;;;-2.40;99.90;;;;;;4188333;28;20052;-83
2023/03/05 06:15:36;;;;;;;20.77;18.80;;;-2.50;99.90;;;;;;4191113;28;20056;-83
2023/03/05 06:17:58;;;;;;;20.92;19.33;;;-2.70;99.90;;;;;;4191133;28;20082;-83
2023/03/05 06:20:18;;;;;;;22.00;20.38;;;-2.80;99.90;;;;;;4181121;28;20047;-83
2023/03/05 06:22:39;;;;;;;24.77;22.50;;;-2.90;99.90;;;;;;4205467;28;20263;-83
2023/03/05 06:24:59;;;;;;;23.77;22.08;;;-3.00;99.90;;;;;;4190944;28;20063;-83
2023/03/05 06:27:19;;;;;;;20.98;19.52;;;-3.10;99.90;;;;;;4186605;28;20123;-83
2023/03/05 06:29:40;;;;;;;20.08;18.65;;;-3.20;99.90;;;;;;4203946;28;20043;-83
2023/03/05 06:32:02;;;;;;;26.20;23.98;;;-3.10;99.90;;;;;;4177839;28;20098;-83
2023/03/05 06:34:22;;;;;;;23.88;21.92;;;-3.10;99.90;;;;;;4180201;28;20051;-83
2023/03/05 06:36:43;;;;;;;22.45;20.75;;;-3.10;99.90;;;;;;4185079;28;20491;-83
2023/03/05 06:39:03;;;;;;;22.70;20.67;;;-2.90;99.90;;;;;;4189696;28;20047;-83
2023/03/05 06:41:28;;;;;;;22.67;20.63;;;-2.80;99.90;;;;;;4189268;28;20121;-83
2023/03/05 06:43:48;;;;;;;23.35;21.35;;;-2.80;99.90;;;;;;4188615;28;20279;-83
2023/03/05 06:46:14;;;;;;;25.80;23.42;;;-2.70;99.90;;;;;;4198431;28;20112;-84
2023/03/05 06:48:34;;;;;;;30.33;27.17;;;-2.70;99.90;;;;;;4205341;28;20110;-83
2023/03/05 06:50:54;;;;;;;27.23;24.63;;;-2.70;99.90;;;;;;4205573;28;20060;-82
2023/03/05 06:53:14;;;;;;;26.15;23.65;;;-2.70;99.90;;;;;;4205877;28;20051;-83
2023/03/05 06:55:38;;;;;;;22.10;20.15;;;-2.70;99.90;;;;;;4205761;28;20147;-83
2023/03/05 06:57:58;;;;;;;21.27;19.67;;;-2.70;99.90;;;;;;4205703;28;20051;-83
2023/03/05 07:00:18;;;;;;;22.48;20.95;;;-2.70;99.90;;;;;;4205495;28;20086;-83
2023/03/05 07:02:41;;;;;;;20.83;19.25;;;-2.70;99.90;;;;;;4190913;28;20083;-83
2023/03/05 07:05:01;;;;;;;20.25;18.67;;;-2.60;99.90;;;;;;4205723;28;20063;-83
2023/03/05 07:07:21;;;;;;;20.15;18.40;;;-2.50;99.90;;;;;;4188183;28;20063;-83
2023/03/05 07:09:43;;;;;;;18.20;17.02;;;-2.50;99.90;;;;;;4188711;28;20044;-83
2023/03/05 07:12:04;;;;;;;15.05;14.35;;;-2.40;99.90;;;;;;4204468;28;20044;-83
2023/03/05 07:14:23;;;;;;;15.57;14.88;;;-2.40;99.90;;;;;;4182024;28;20103;-83
2023/03/05 07:16:44;;;;;;;15.55;14.90;;;-2.30;99.90;;;;;;4205372;28;20278;-83
2023/03/05 07:19:06;;;;;;;15.13;14.43;;;-2.20;99.90;;;;;;4190654;28;20112;-83
2023/03/05 07:21:28;;;;;;;14.02;13.43;;;-2.10;99.90;;;;;;4189859;28;20141;-84
2023/03/05 07:23:48;;;;;;;16.03;15.13;;;-1.90;99.90;;;;;;4189725;28;20424;-82
2023/03/05 07:26:09;;;;;;;13.25;12.82;;;-1.70;99.90;;;;;;4186801;28;20334;-83
2023/03/05 07:28:29;;;;;;;13.82;13.18;;;-1.70;99.90;;;;;;4190167;28;20051;-83
2023/03/05 07:31:01;;;;;;;14.68;13.88;;;-1.50;99.90;;;;;;4189845;28;20079;-83
2023/03/05 07:33:21;;;;;;;14.23;13.70;;;-1.40;99.90;;;;;;4188360;28;20083;-83
2023/03/05 07:35:41;;;;;;;12.60;12.30;;;-1.20;99.90;;;;;;4187533;28;20048;-83
2023/03/05 07:38:01;;;;;;;25.92;24.42;;;-1.00;99.90;;;;;;4185015;28;20052;-83
2023/03/05 07:40:21;;;;;;;15.65;14.77;;;-0.70;99.90;;;;;;4203183;28;20047;-82
2023/03/05 07:42:40;;;;;;;15.13;14.18;;;-0.50;99.90;;;;;;4190278;28;20051;-83
2023/03/05 07:45:00;;;;;;;14.32;13.55;;;-0.50;99.90;;;;;;4187614;28;20060;-83
2023/03/05 07:47:22;;;;;;;13.73;13.23;;;-0.40;99.90;;;;;;4203500;28;20039;-83
2023/03/05 07:49:42;;;;;;;15.02;14.32;;;-0.40;99.90;;;;;;4187077;28;20117;-84
2023/03/05 07:52:02;;;;;;;14.30;13.43;;;-0.30;99.90;;;;;;4184319;28;20099;-80
2023/03/05 07:54:22;;;;;;;14.30;13.18;;;0.10;99.90;;;;;;4191652;28;20052;-80
2023/03/05 07:56:41;;;;;;;10.30;10.10;;;0.40;99.90;;;;;;4191108;28;20159;-80
2023/03/05 07:59:05;;;;;;;13.02;12.55;;;0.70;99.90;;;;;;4191480;28;20153;-80
2023/03/05 08:01:25;;;;;;;12.68;11.88;;;0.90;99.90;;;;;;4205895;28;20400;-80
2023/03/05 08:03:45;;;;;;;11.32;11.02;;;1.00;99.90;;;;;;4192047;28;20112;-80
2023/03/05 08:06:06;;;;;;;9.20;9.02;;;1.20;99.90;;;;;;4207070;28;20260;-80
2023/03/05 08:08:26;;;;;;;12.93;12.52;;;1.40;99.90;;;;;;4190899;28;20040;-80
2023/03/05 08:10:46;;;;;;;45.65;33.67;;;1.60;99.90;;;;;;4206709;28;20051;-80
2023/03/05 08:13:06;;;;;;;15.95;14.82;;;1.80;99.90;;;;;;4206652;28;20087;-80
2023/03/05 08:15:26;;;;;;;12.30;11.48;;;2.00;99.90;;;;;;4205828;28;20051;-80
2023/03/05 08:17:46;;;;;;;9.50;9.13;;;2.30;99.90;;;;;;4206937;28;20090;-80
2023/03/05 08:20:10;;;;;;;10.60;10.07;;;2.50;99.90;;;;;;4200342;28;20092;-80
2023/03/05 08:22:33;;;;;;;10.98;10.57;;;2.70;99.90;;;;;;4206605;28;20042;-80
2023/03/05 08:24:53;;;;;;;;;;;2.90;99.90;;;;;;4206279;28;20086;-80
2023/03/05 08:27:12;;;;;;;9.80;9.40;;;3.10;99.90;;;;;;4204592;28;19980;-80
2023/03/05 08:29:33;;;;;;;28.42;20.90;;;3.20;99.90;;;;;;4186413;28;20279;-80
2023/03/05 08:31:54;;;;;;;12.52;11.63;;;3.40;99.90;;;;;;4206258;28;20248;-80
2023/03/05 08:34:14;;;;;;;13.70;12.52;;;3.60;99.90;;;;;;4190254;28;20060;-80
2023/03/05 08:36:35;;;;;;;15.43;13.95;;;3.80;99.90;;;;;;4204083;28;20056;-80
2023/03/05 08:38:55;;;;;;;11.88;11.27;;;3.90;99.90;;;;;;4205644;28;20052;-80
2023/03/05 08:41:16;;;;;;;11.32;10.57;;;4.00;99.90;;;;;;4205871;28;20150;-80
2023/03/05 08:43:36;;;;;;;11.40;10.77;;;4.20;99.90;;;;;;4206614;28;20075;-80
2023/03/05 08:45:58;;;;;;;16.52;14.95;;;4.40;99.90;;;;;;4206271;28;20086;-80
2023/03/05 08:48:18;;;;;;;11.02;10.60;;;4.50;99.90;;;;;;4205254;28;20074;-81
2023/03/05 08:50:38;;;;;;;12.55;11.68;;;4.60;99.90;;;;;;4205608;28;20079;-80
2023/03/05 08:52:59;;;;;;;13.27;12.10;;;4.60;99.90;;;;;;4182634;28;20298;-81
2023/03/05 08:55:18;;;;;;;12.05;11.25;;;4.70;99.90;;;;;;4205738;28;20101;-81
2023/03/05 08:57:38;;;;;;;11.10;10.40;;;4.90;99.90;;;;;;4206346;28;20085;-81
2023/03/05 08:59:58;;;;;;;12.20;11.45;;;5.00;99.90;;;;;;4191168;28;20106;-80
2023/03/05 09:02:18;;;;;;;11.30;10.60;;;5.10;99.90;;;;;;4205366;28;20048;-81
2023/03/05 09:04:39;;;;;;;10.98;10.57;;;5.30;99.90;;;;;;4206057;28;20075;-80
2023/03/05 09:06:59;;;;;;;10.90;10.23;;;5.40;99.90;;;;;;4190012;28;20108;-81
2023/03/05 09:09:22;;;;;;;10.98;10.18;;;5.50;99.90;;;;;;4191136;28;20075;-81
2023/03/05 09:11:41;;;;;;;9.50;9.20;;;5.60;99.90;;;;;;4206411;28;20086;-81
2023/03/05 09:14:05;;;;;;;11.13;10.20;;;5.80;99.90;;;;;;4206492;28;20236;-82
2023/03/05 09:16:26;;;;;;;12.30;11.70;;;5.90;99.90;;;;;;4190978;28;20044;-81
2023/03/05 09:18:46;;;;;;;13.77;12.77;;;6.00;99.90;;;;;;4203896;28;20083;-81
2023/03/05 09:21:14;;;;;;;10.55;9.73;;;6.20;99.90;;;;;;4191308;28;20051;-81
2023/03/05 09:23:35;;;;;;;15.50;10.73;;;6.40;99.90;;;;;;4190488;28;20047;-81
2023/03/05 09:25:55;;;;;;;9.57;8.95;;;6.50;99.90;;;;;;4190152;28;20088;-81
2023/03/05 09:28:16;;;;;;;11.02;10.30;;;6.70;99.90;;;;;;4205397;28;20055;-81
2023/03/05 09:30:36;;;;;;;10.85;10.13;;;6.80;99.90;;;;;;4190896;28;20047;-81
2023/03/05 09:32:56;;;;;;;11.70;10.80;;;7.00;99.90;;;;;;4205058;28;20116;-81
2023/03/05 09:35:16;;;;;;;11.30;10.70;;;7.20;99.90;;;;;;4186069;28;20409;-81
2023/03/05 09:37:36;;;;;;;14.65;13.38;;;7.30;99.90;;;;;;4204926;28;20063;-81
2023/03/05 09:39:57;;;;;;;32.58;24.92;;;7.60;99.90;;;;;;4190347;28;20138;-81
2023/03/05 09:42:34;;;;;;;14.95;13.27;;;7.80;99.90;;;;;;4190996;28;20094;-81
2023/03/05 09:45:13;;;;;;;13.40;12.07;;;8.30;99.90;;;;;;4205325;28;20048;-81
2023/03/05 09:47:39;;;;;;;7.95;7.35;;;8.70;99.90;;;;;;4194622;28;20063;-81
2023/03/05 09:50:19;;;;;;;14.50;12.02;;;9.10;97.20;;;;;;4208294;28;20055;-81
2023/03/05 09:52:54;;;;;;;9.10;8.40;;;9.20;98.00;;;;;;4182880;28;20056;-81
2023/03/05 09:55:39;;;;;;;7.95;7.63;;;9.50;98.70;;;;;;4190747;28;20075;-81
2023/03/05 09:58:09;;;;;;;5.85;5.65;;;9.80;96.40;;;;;;4180567;28;20280;-81
2023/03/05 10:00:44;;;;;;;5.80;5.50;;;9.70;95.70;;;;;;4189614;28;20084;-81
2023/03/05 10:03:26;;;;;;;5.25;4.97;;;10.00;94.90;;;;;;4190754;28;20087;-81
2023/03/05 10:06:05;;;;;;;6.25;6.15;;;9.90;93.60;;;;;;4205362;28;20090;-81
2023/03/05 10:08:31;;;;;;;4.90;4.63;;;10.00;94.20;;;;;;4205459;28;20055;-81
2023/03/05 10:10:52;;;;;;;5.05;4.93;;;10.40;92.80;;;;;;4190002;28;20463;-81
2023/03/05 10:13:25;;;;;;;5.40;5.00;;;10.70;90.30;;;;;;4205046;28;20043;-81
2023/03/05 10:15:59;;;;;;;5.05;4.78;;;10.90;90.00;;;;;;4204771;28;20086;-81
2023/03/05 10:18:37;;;;;;;;;;;11.30;90.90;;;;;;4190837;28;20051;-81
2023/03/05 10:21:29;;;;;;;4.70;4.53;;;11.10;86.10;;;;;;4204584;28;19952;-81
2023/03/05 10:23:58;;;;;;;3.85;3.70;;;11.70;85.10;;;;;;4204472;28;20327;-81
2023/03/05 10:26:49;;;;;;;3.67;3.47;;;11.50;83.00;;;;;;4190211;28;20056;-81
2023/03/05 10:29:34;;;;;;;3.42;3.33;;;11.40;82.10;;;;;;4189994;28;20239;-81
2023/03/05 10:32:38;;;;;;;2.95;2.75;;;11.80;86.50;;;;;;4195914;28;20322;-80
2023/03/05 10:35:10;;;;;;;2.60;2.53;;;12.00;84.20;;;;;;4159169;28;20108;-80
2023/03/05 10:37:57;;;;;;;2.95;2.83;;;12.30;79.80;;;;;;4191768;28;20071;-80
2023/03/05 10:40:35;;;;;;;3.80;3.10;;;12.60;80.90;;;;;;4204499;28;20047;-80
2023/03/05 10:43:19;;;;;;;3.88;2.80;;;12.50;77.60;;;;;;4204722;28;20069;-80
2023/03/05 10:45:49;;;;;;;;;;;12.60;80.40;;;;;;4188270;28;20048;-80
2023/03/05 10:48:22;;;;;;;3.25;3.05;;;13.00;79.20;;;;;;4205060;28;19939;-80
2023/03/05 10:50:47;;;;;;;;;;;12.90;75.10;;;;;;4203881;28;20055;-80
2023/03/05 10:53:51;;;;;;;3.55;2.97;;;12.60;75.70;;;;;;4204246;28;19924;-80
2023/03/05 10:56:12;;;;;;;4.20;3.70;;;12.90;77.30;;;;;;4138567;28;20092;-80
2023/03/05 10:58:32;;;;;;;2.58;2.47;;;13.10;75.20;;;;;;4139805;28;20057;-80
2023/03/05 11:00:58;;;;;;;3.28;3.10;;;13.40;75.60;;;;;;4140756;28;20117;-80
2023/03/05 11:03:18;;;;;;;4.30;4.10;;;12.90;73.40;;;;;;4142370;28;20084;-80
2023/03/05 11:05:45;;;;;;;4.43;4.10;;;12.90;75.20;;;;;;4139147;28;20100;-80
2023/03/05 11:08:27;;;;;;;4.53;4.32;;;12.60;78.50;;;;;;4140986;28;20089;-81
2023/03/05 11:11:02;;;;;;;4.82;4.63;;;12.80;77.20;;;;;;4125024;28;20138;-81
2023/03/05 11:13:26;;;;;;;4.70;4.50;;;13.40;76.40;;;;;;4136726;28;20081;-81
2023/03/05 11:15:59;;;;;;;4.32;3.92;;;13.40;76.50;;;;;;4138865;28;20112;-80
2023/03/05 11:18:21;;;;;;;3.10;3.00;;;13.70;79.00;;;;;;4138428;28;20196;-81
2023/03/05 11:20:41;;;;;;;4.05;3.78;;;13.70;76.50;;;;;;4125113;28;20336;-81
2023/03/05 11:23:14;;;;;;;3.10;3.00;;;13.70;76.00;;;;;;4141202;28;20276;-81
2023/03/05 11:25:49;;;;;;;3.67;2.60;;;13.80;73.80;;;;;;4138526;28;20384;-80
2023/03/05 11:28:18;;;;;;;3.75;3.53;;;13.70;78.20;;;;;;4207137;28;20056;-80
2023/03/05 11:31:08;;;;;;;3.22;3.03;;;13.10;73.60;;;;;;4206484;28;20060;-80
2023/03/05 11:33:29;;;;;;;3.05;2.95;;;13.60;76.00;;;;;;4191573;28;20040;-81
2023/03/05 11:35:52;;;;;;;3.75;3.38;;;13.20;74.50;;;;;;4206292;28;20247;-80
2023/03/05 11:38:25;;;;;;;2.78;2.65;;;13.50;75.10;;;;;;4207501;28;20363;-81
2023/03/05 11:40:46;;;;;;;6.78;4.80;;;14.10;80.10;;;;;;4206572;28;20059;-80
2023/03/05 11:43:20;;;;;;;2.88;2.78;;;14.60;77.30;;;;;;4190701;28;20064;-80
2023/03/05 11:45:42;;;;;;;2.65;2.45;;;14.50;76.20;;;;;;4207392;28;20236;-80
2023/03/05 11:48:18;;;;;;;3.85;3.58;;;13.80;72.90;;;;;;4207351;28;20043;-80
2023/03/05 11:50:40;;;;;;;3.90;3.50;;;14.00;75.80;;;;;;4205721;28;20370;-80
2023/03/05 11:53:13;;;;;;;4.50;3.20;;;14.30;76.20;;;;;;4192411;28;20075;-80
2023/03/05 11:55:33;;;;;;;3.78;3.58;;;14.00;77.30;;;;;;4205513;28;20670;-80
2023/03/05 11:58:10;;;;;;;5.40;4.13;;;14.50;77.60;;;;;;4206194;28;20319;-80
2023/03/05 12:00:33;;;;;;;3.50;2.80;;;14.50;76.40;;;;;;4189110;28;20136;-83
2023/03/05 12:02:56;;;;;;;2.17;2.15;;;14.10;77.10;;;;;;4206616;28;20074;-83
2023/03/05 12:05:17;;;;;;;2.78;2.67;;;14.20;76.80;;;;;;4186645;28;20390;-84
2023/03/05 12:07:41;;;;;;;2.80;2.70;;;14.50;82.00;;;;;;4204387;28;20048;-84
2023/03/05 12:10:01;;;;;;;3.00;2.75;;;14.60;79.50;;;;;;4207520;28;20094;-84
2023/03/05 12:12:38;;;;;;;3.72;3.53;;;14.60;84.40;;;;;;4189665;28;20069;-84
2023/03/05 12:15:11;;;;;;;2.55;2.45;;;14.30;79.90;;;;;;4191712;28;20039;-84